createdAt,value
2019-06-07T00:01:21.136Z,3.95
2019-06-07T00:03:53.509Z,3.12
2019-06-07T00:06:25.678Z,3.40
2019-06-07T00:08:58.109Z,3.52
2019-06-07T00:11:30.547Z,3.70
2019-06-07T00:14:01.567Z,3.45
2019-06-07T00:16:32.257Z,3.80
2019-06-07T00:19:03.369Z,3.62
2019-06-07T00:22:13.455Z,3.47
2019-06-07T00:24:08.615Z,3.62
2019-06-07T00:26:57.272Z,4.20
2019-06-07T00:29:13.933Z,3.95
2019-06-07T00:31:43.705Z,4.25
2019-06-07T00:34:16.366Z,4.12
2019-06-07T00:36:48.103Z,4.50
2019-06-07T00:39:24.599Z,4.75
2019-06-07T00:41:51.750Z,4.47
2019-06-07T00:44:23.351Z,5.12
2019-06-07T00:46:54.405Z,4.55
2019-06-07T00:49:39.925Z,4.95
2019-06-07T00:51:57.764Z,4.22
2019-06-07T00:54:29.631Z,4.05
2019-06-07T00:57:00.741Z,4.60
2019-06-07T00:59:31.367Z,4.55
2019-06-07T01:02:02.009Z,5.10
2019-06-07T01:04:33.027Z,4.70
2019-06-07T01:07:04.230Z,5.10
2019-06-07T01:12:05.638Z,5.20
2019-06-07T01:14:38.630Z,5.40
2019-06-07T01:17:39.653Z,5.72
2019-06-07T01:19:58.565Z,4.65
2019-06-07T01:22:30.746Z,4.60
2019-06-07T01:25:01.921Z,4.72
2019-06-07T01:30:02.665Z,4.92
2019-06-07T01:32:33.794Z,5.17
2019-06-07T01:35:04.957Z,5.65
2019-06-07T01:37:35.864Z,5.20
2019-06-07T01:40:07.569Z,5.10
2019-06-07T01:42:39.218Z,5.35
2019-06-07T01:45:11.078Z,5.28
2019-06-07T01:47:41.856Z,5.53
2019-06-07T01:50:12.970Z,5.47
2019-06-07T01:52:43.959Z,5.22
2019-06-07T01:55:15.530Z,4.45
2019-06-07T01:57:48.502Z,5.30
2019-06-07T02:00:21.662Z,5.03
2019-06-07T02:02:51.937Z,5.15
2019-06-07T02:05:25.917Z,4.97
2019-06-07T02:07:56.657Z,5.42
2019-06-07T02:10:30.293Z,4.75
2019-06-07T02:12:59.889Z,5.20
2019-06-07T02:15:36.284Z,5.53
2019-06-07T02:18:03.819Z,5.22
2019-06-07T02:20:34.788Z,4.65
2019-06-07T02:23:05.807Z,5.30
2019-06-07T02:25:43.837Z,5.67
2019-06-07T02:28:27.353Z,5.70
2019-06-07T02:30:51.022Z,5.25
2019-06-07T02:33:14.215Z,5.62
2019-06-07T02:35:45.090Z,5.33
2019-06-07T02:38:15.698Z,6.08
2019-06-07T02:40:46.398Z,5.92
2019-06-07T02:43:17.197Z,5.25
2019-06-07T02:45:48.226Z,5.50
2019-06-07T02:48:19.067Z,5.45
2019-06-07T02:50:50.617Z,5.17
2019-06-07T02:53:25.027Z,5.50
2019-06-07T02:58:32.417Z,6.00
2019-06-07T03:01:07.630Z,5.97
2019-06-07T03:03:33.726Z,7.05
2019-06-07T03:06:04.944Z,6.30
2019-06-07T03:08:38.244Z,6.78
2019-06-07T03:11:10.513Z,6.00
2019-06-07T03:13:42.279Z,7.08
2019-06-07T03:16:14.870Z,6.97
2019-06-07T03:19:01.707Z,6.75
2019-06-07T03:21:36.521Z,7.03
2019-06-07T03:24:07.164Z,7.28
2019-06-07T03:27:31.362Z,7.37
2019-06-07T03:29:10.635Z,8.18
2019-06-07T03:31:47.721Z,8.03
2019-06-07T03:34:14.369Z,7.65
2019-06-07T03:36:45.357Z,7.80
2019-06-07T03:39:16.556Z,8.05
2019-06-07T03:42:05.192Z,8.98
2019-06-07T03:44:19.870Z,8.38
2019-06-07T03:46:50.769Z,8.33
2019-06-07T03:49:21.405Z,8.18
2019-06-07T03:51:52.352Z,7.92
2019-06-07T03:54:23.105Z,8.78
2019-06-07T03:56:53.772Z,9.90
2019-06-07T03:59:24.692Z,8.95
2019-06-07T04:01:55.932Z,9.23
2019-06-07T04:06:56.354Z,9.40
2019-06-07T04:09:28.763Z,10.23
2019-06-07T04:11:59.896Z,9.68
2019-06-07T04:14:30.934Z,8.88
2019-06-07T04:17:02.854Z,10.48
2019-06-07T04:19:37.279Z,9.55
2019-06-07T04:22:06.190Z,9.58
2019-06-07T04:24:41.462Z,10.60
2019-06-07T04:27:10.032Z,11.28
2019-06-07T04:30:04.848Z,10.55
2019-06-07T04:32:13.519Z,10.80
2019-06-07T04:34:44.357Z,10.18
2019-06-07T04:37:16.336Z,11.30
2019-06-07T04:39:48.285Z,10.50
2019-06-07T04:42:21.504Z,10.95
2019-06-07T04:44:53.512Z,10.48
2019-06-07T04:47:27.389Z,10.15
2019-06-07T04:50:00.676Z,10.43
2019-06-07T04:52:33.482Z,10.25
2019-06-07T04:55:03.775Z,10.70
2019-06-07T04:57:35.458Z,10.00
2019-06-07T05:00:46.716Z,9.40
2019-06-07T05:02:42.754Z,9.00
2019-06-07T05:05:12.152Z,9.90
2019-06-07T05:07:45.949Z,8.88
2019-06-07T05:10:15.281Z,8.55
2019-06-07T05:12:46.019Z,9.30
2019-06-07T05:15:17.040Z,9.03
2019-06-07T05:17:48.068Z,8.13
2019-06-07T05:20:20.136Z,8.95
2019-06-07T05:22:51.267Z,8.60
2019-06-07T05:25:22.153Z,9.45
2019-06-07T05:27:53.367Z,8.33
2019-06-07T05:31:01.957Z,9.28
2019-06-07T05:33:09.210Z,8.70
2019-06-07T05:35:43.238Z,8.83
2019-06-07T05:38:12.724Z,8.95
2019-06-07T05:40:48.697Z,8.25
2019-06-07T05:43:24.659Z,8.38
2019-06-07T05:45:55.483Z,8.18
2019-06-07T05:48:26.828Z,7.60
2019-06-07T05:50:58.006Z,8.28
2019-06-07T05:53:28.865Z,7.92
2019-06-07T05:55:59.707Z,6.85
2019-06-07T05:58:30.824Z,7.20
2019-06-07T06:01:41.448Z,6.10
2019-06-07T06:03:37.883Z,6.20
2019-06-07T06:06:09.086Z,6.33
2019-06-07T06:08:41.866Z,5.75
2019-06-07T06:11:14.311Z,5.53
2019-06-07T06:14:05.326Z,4.95
2019-06-07T06:16:19.485Z,5.72
2019-06-07T06:18:50.629Z,5.60
2019-06-07T06:21:21.745Z,5.22
2019-06-07T06:23:54.013Z,5.08
2019-06-07T06:26:25.056Z,5.25
2019-06-07T06:28:56.290Z,4.70
2019-06-07T06:31:27.254Z,5.17
2019-06-07T06:33:59.239Z,5.00
2019-06-07T06:36:31.331Z,5.20
2019-06-07T06:39:02.350Z,4.80
2019-06-07T06:41:46.088Z,4.85
2019-06-07T06:44:07.128Z,5.22
2019-06-07T06:46:44.049Z,4.75
2019-06-07T06:49:10.876Z,4.70
2019-06-07T06:51:50.063Z,4.70
2019-06-07T06:54:39.534Z,4.40
2019-06-07T06:56:52.766Z,4.78
2019-06-07T06:59:40.952Z,4.30
2019-06-07T07:01:55.573Z,3.60
2019-06-07T07:04:26.512Z,3.92
2019-06-07T07:06:57.994Z,3.90
2019-06-07T07:09:29.971Z,3.77
2019-06-07T07:12:12.324Z,3.37
2019-06-07T07:14:35.116Z,2.98
2019-06-07T07:17:06.780Z,4.28
2019-06-07T07:19:37.861Z,3.20
2019-06-07T07:22:08.691Z,3.70
2019-06-07T07:24:39.233Z,3.50
2019-06-07T07:27:09.898Z,3.90
2019-06-07T07:29:40.648Z,3.58
2019-06-07T07:32:22.840Z,3.72
2019-06-07T07:35:00.059Z,3.92
2019-06-07T07:37:26.890Z,3.95
2019-06-07T07:42:29.675Z,4.67
2019-06-07T07:45:00.697Z,3.92
2019-06-07T07:47:31.915Z,3.85
2019-06-07T07:52:33.140Z,3.73
2019-06-07T07:55:03.939Z,4.00
2019-06-07T07:57:34.532Z,3.75
2019-06-07T08:00:48.724Z,3.22
2019-06-07T08:02:38.447Z,3.60
2019-06-07T08:05:39.956Z,3.58
2019-06-07T08:07:41.650Z,3.67
2019-06-07T08:10:13.324Z,3.45
2019-06-07T08:13:01.924Z,3.70
2019-06-07T08:15:19.167Z,5.20
2019-06-07T08:17:55.267Z,4.78
2019-06-07T08:20:23.213Z,5.05
2019-06-07T08:25:25.839Z,6.08
2019-06-07T08:33:23.947Z,6.35
2019-06-07T08:36:03.602Z,6.33
2019-06-07T08:40:37.438Z,4.92
2019-06-07T08:43:19.849Z,4.40
2019-06-07T08:45:41.068Z,4.10
2019-06-07T08:50:43.336Z,3.70
2019-06-07T08:53:14.177Z,4.08
2019-06-07T08:55:44.898Z,3.83
2019-06-07T08:58:15.926Z,3.70
2019-06-07T09:00:47.982Z,3.10
2019-06-07T09:03:18.946Z,3.52
2019-06-07T09:05:49.995Z,4.15
2019-06-07T09:08:29.918Z,3.92
2019-06-07T09:10:56.376Z,3.83
2019-06-07T09:13:26.255Z,3.80
2019-06-07T09:16:04.911Z,3.65
2019-06-07T09:18:42.844Z,3.87
2019-06-07T09:21:09.091Z,3.65
2019-06-07T09:23:38.242Z,3.83
2019-06-07T09:26:16.609Z,4.75
2019-06-07T09:28:42.023Z,4.70
2019-06-07T09:33:44.693Z,3.65
2019-06-07T09:36:15.692Z,3.30
2019-06-07T09:38:48.085Z,2.65
2019-06-07T09:41:19.259Z,2.80
2019-06-07T09:46:21.662Z,2.90
2019-06-07T09:49:14.192Z,2.80
2019-06-07T09:51:27.036Z,3.17
2019-06-07T09:54:00.491Z,3.72
2019-06-07T09:56:30.960Z,3.17
2019-06-07T10:01:32.873Z,3.52
2019-06-07T10:04:11.607Z,3.58
2019-06-07T10:06:36.299Z,3.85
2019-06-07T10:11:42.534Z,3.90
2019-06-07T10:14:13.458Z,3.70
2019-06-07T10:16:46.655Z,4.20
2019-06-07T10:19:16.786Z,4.30
2019-06-07T10:21:47.862Z,4.62
2019-06-07T10:24:19.208Z,4.80
2019-06-07T10:26:52.156Z,4.83
2019-06-07T10:29:23.316Z,4.62
2019-06-07T10:31:54.166Z,5.55
2019-06-07T10:34:25.399Z,5.53
2019-06-07T10:39:28.024Z,6.03
2019-06-07T10:44:28.606Z,19.85
2019-06-07T10:46:59.363Z,6.03
2019-06-07T10:49:32.401Z,7.58
2019-06-07T10:52:05.045Z,6.35
2019-06-07T10:54:35.757Z,6.60
2019-06-07T10:57:09.344Z,15.68
2019-06-07T10:59:39.345Z,15.93
2019-06-07T11:02:11.752Z,6.75
2019-06-07T11:04:43.156Z,5.87
2019-06-07T11:07:14.496Z,6.90
2019-06-07T11:09:45.329Z,6.85
2019-06-07T11:12:19.231Z,7.00
2019-06-07T11:14:50.166Z,7.60
2019-06-07T11:17:21.260Z,7.35
2019-06-07T11:19:55.348Z,6.62
2019-06-07T11:22:26.384Z,7.90
2019-06-07T11:24:57.755Z,7.50
2019-06-07T11:30:06.212Z,7.05
2019-06-07T11:32:36.979Z,7.75
2019-06-07T11:37:40.963Z,8.48
2019-06-07T11:40:35.670Z,7.65
2019-06-07T11:42:45.694Z,8.55
2019-06-07T11:45:20.754Z,7.75
2019-06-07T11:47:54.776Z,6.58
2019-06-07T11:50:25.752Z,8.18
2019-06-07T11:53:06.490Z,6.97
2019-06-07T11:55:38.601Z,7.40
2019-06-07T11:58:14.292Z,6.97
2019-06-07T12:00:41.977Z,7.95
2019-06-07T12:03:13.884Z,6.30
2019-06-07T12:05:44.671Z,6.33
2019-06-07T12:08:16.060Z,7.33
2019-06-07T12:10:47.107Z,6.75
2019-06-07T12:13:18.994Z,7.10
2019-06-07T12:15:49.933Z,6.05
2019-06-07T12:18:21.404Z,5.78
2019-06-07T12:20:52.046Z,6.40
2019-06-07T12:23:22.845Z,6.35
2019-06-07T12:25:53.504Z,5.50
2019-06-07T12:28:24.240Z,5.37
2019-06-07T12:30:55.317Z,6.00
2019-06-07T12:35:55.471Z,5.58
2019-06-07T12:38:26.384Z,6.42
2019-06-07T12:40:58.543Z,5.70
2019-06-07T12:43:30.204Z,5.70
2019-06-07T12:46:01.003Z,5.95
2019-06-07T12:48:31.749Z,6.12
2019-06-07T12:51:02.412Z,5.87
2019-06-07T12:53:33.539Z,5.28
2019-06-07T12:58:38.647Z,4.80
2019-06-07T13:01:07.075Z,6.92
2019-06-07T13:03:39.615Z,8.48
2019-06-07T13:06:10.303Z,4.53
2019-06-07T13:08:40.994Z,5.62
2019-06-07T13:11:17.615Z,4.90
2019-06-07T13:13:43.994Z,4.45
2019-06-07T13:16:16.347Z,4.47
2019-06-07T13:18:47.207Z,4.55
2019-06-07T13:21:18.447Z,4.70
2019-06-07T13:26:18.882Z,3.85
2019-06-07T13:28:49.941Z,4.12
2019-06-07T13:31:23.410Z,3.77
2019-06-07T13:33:54.506Z,4.33
2019-06-07T13:36:26.664Z,5.28
2019-06-07T13:38:57.414Z,3.75
2019-06-07T13:41:40.619Z,3.58
2019-06-07T13:44:01.191Z,3.30
2019-06-07T13:46:35.258Z,3.10
2019-06-07T13:51:39.124Z,3.25
2019-06-07T13:54:09.951Z,2.90
2019-06-07T13:57:00.837Z,3.12
2019-06-07T13:59:13.249Z,3.20
2019-06-07T14:01:44.260Z,2.90
2019-06-07T14:04:15.165Z,2.85
2019-06-07T14:06:45.830Z,2.25
2019-06-07T14:09:16.869Z,2.50
2019-06-07T14:16:49.013Z,2.35
2019-06-07T14:24:21.141Z,2.30
2019-06-07T14:27:11.037Z,2.67
2019-06-07T14:29:42.139Z,2.22
2019-06-07T14:34:45.314Z,2.42
2019-06-07T14:37:16.579Z,2.15
2019-06-07T14:39:47.706Z,2.12
2019-06-07T14:42:18.789Z,2.27
2019-06-07T14:44:49.557Z,2.33
2019-06-07T14:47:20.355Z,2.70
2019-06-07T14:49:51.120Z,1.80
2019-06-07T14:52:22.072Z,2.00
2019-06-07T14:57:22.852Z,2.33
2019-06-07T14:59:54.009Z,2.15
2019-06-07T15:02:26.686Z,2.10
2019-06-07T15:04:58.322Z,2.02
2019-06-07T15:07:30.940Z,1.80
2019-06-07T15:10:02.005Z,1.82
2019-06-07T15:12:33.221Z,1.40
2019-06-07T15:15:04.617Z,1.47
2019-06-07T15:17:35.598Z,2.10
2019-06-07T15:22:38.741Z,1.57
2019-06-07T15:25:10.621Z,1.70
2019-06-07T15:27:43.108Z,1.30
2019-06-07T15:30:14.139Z,1.30
2019-06-07T15:32:46.134Z,2.08
2019-06-07T15:35:17.352Z,1.90
2019-06-07T15:37:48.401Z,1.72
2019-06-07T15:42:53.101Z,1.50
2019-06-07T15:45:23.232Z,1.40
2019-06-07T15:47:54.177Z,1.37
2019-06-07T15:50:28.598Z,1.35
2019-06-07T15:52:59.336Z,1.62
2019-06-07T15:55:31.974Z,1.77
2019-06-07T15:58:03.319Z,2.08
2019-06-07T16:00:35.445Z,1.40
2019-06-07T16:03:07.450Z,1.37
2019-06-07T16:05:40.527Z,1.62
2019-06-07T16:08:11.739Z,1.27
2019-06-07T16:10:46.559Z,1.50
2019-06-07T16:13:17.752Z,2.22
2019-06-07T16:18:18.588Z,1.42
2019-06-07T16:20:52.082Z,1.10
2019-06-07T16:23:23.283Z,1.45
2019-06-07T16:28:25.190Z,1.70
2019-06-07T16:30:56.109Z,1.60
2019-06-07T16:33:26.902Z,1.62
2019-06-07T16:35:58.078Z,1.60
2019-06-07T16:40:58.184Z,2.65
2019-06-07T16:43:29.087Z,2.10
2019-06-07T16:45:59.686Z,1.70
2019-06-07T16:48:31.483Z,1.95
2019-06-07T16:51:02.144Z,1.40
2019-06-07T16:53:32.912Z,2.08
2019-06-07T16:56:04.069Z,2.62
2019-06-07T16:58:34.806Z,2.62
2019-06-07T17:01:05.641Z,2.72
2019-06-07T17:03:37.310Z,2.05
2019-06-07T17:06:09.385Z,3.27
2019-06-07T17:08:42.134Z,2.05
2019-06-07T17:11:13.559Z,2.30
2019-06-07T17:13:46.498Z,2.00
2019-06-07T17:16:17.609Z,2.00
2019-06-07T17:18:49.222Z,2.00
2019-06-07T17:21:21.491Z,2.25
2019-06-07T17:23:52.522Z,3.12
2019-06-07T17:26:24.563Z,3.83
2019-06-07T17:28:55.667Z,2.20
2019-06-07T17:31:29.101Z,2.00
2019-06-07T17:34:00.552Z,1.65
2019-06-07T17:36:42.319Z,2.65
2019-06-07T17:39:13.123Z,2.12
2019-06-07T17:41:58.914Z,2.60
2019-06-07T17:44:16.568Z,2.08
2019-06-07T17:46:47.627Z,2.65
2019-06-07T17:49:19.785Z,2.70
2019-06-07T17:51:52.033Z,2.33
2019-06-07T17:54:23.447Z,2.22
2019-06-07T17:59:24.407Z,2.70
2019-06-07T18:02:13.492Z,2.60
2019-06-07T18:04:28.061Z,3.25
2019-06-07T18:07:01.327Z,4.40
2019-06-07T18:09:32.651Z,4.42
2019-06-07T18:14:33.554Z,2.80
2019-06-07T18:19:34.413Z,2.40
2019-06-07T18:22:05.297Z,3.08
2019-06-07T18:24:36.027Z,2.85
2019-06-07T18:27:07.301Z,2.90
2019-06-07T18:32:13.521Z,3.17
2019-06-07T18:34:42.885Z,3.22
2019-06-07T18:37:13.794Z,3.22
2019-06-07T18:39:44.556Z,2.42
2019-06-07T18:42:15.499Z,2.37
2019-06-07T18:44:46.917Z,2.55
2019-06-07T18:47:17.649Z,2.95
2019-06-07T18:49:51.546Z,2.58
2019-06-07T18:52:32.274Z,3.08
2019-06-07T18:55:02.935Z,2.70
2019-06-07T18:57:33.625Z,3.05
2019-06-07T19:00:06.020Z,2.90
2019-06-07T19:02:36.668Z,2.87
2019-06-07T19:05:15.735Z,3.05
2019-06-07T19:07:48.286Z,3.25
2019-06-07T19:10:20.935Z,3.00
2019-06-07T19:12:53.020Z,3.15
2019-06-07T19:15:24.901Z,3.42
2019-06-07T19:17:56.213Z,2.75
2019-06-07T19:20:27.920Z,3.67
2019-06-07T19:23:00.370Z,3.33
2019-06-07T19:25:31.180Z,3.10
2019-06-07T19:28:02.107Z,2.95
2019-06-07T19:30:33.079Z,3.25
2019-06-07T19:33:05.495Z,3.20
2019-06-07T19:35:36.142Z,4.28
2019-06-07T19:38:06.774Z,3.72
2019-06-07T19:40:38.149Z,3.45
2019-06-07T19:45:39.818Z,3.47
2019-06-07T19:48:12.443Z,3.10
2019-06-07T19:50:43.492Z,2.87
2019-06-07T19:53:14.735Z,3.20
2019-06-07T19:58:15.526Z,2.95
2019-06-07T20:00:46.437Z,3.25
2019-06-07T20:03:17.175Z,3.42
2019-06-07T20:05:49.659Z,3.33
2019-06-07T20:08:22.271Z,3.92
2019-06-07T20:10:54.356Z,5.35
2019-06-07T20:13:25.386Z,4.83
2019-06-07T20:15:56.879Z,5.35
2019-06-07T20:18:28.890Z,5.28
2019-06-07T20:21:00.671Z,5.30
2019-06-07T20:23:33.177Z,5.95
2019-06-07T20:26:04.766Z,5.97
2019-06-07T20:28:37.135Z,5.78
2019-06-07T20:33:39.217Z,5.92
2019-06-07T20:36:10.578Z,5.45
2019-06-07T20:38:41.338Z,5.47
2019-06-07T20:41:12.685Z,5.47
2019-06-07T20:46:13.596Z,5.78
2019-06-07T20:48:44.673Z,6.60
2019-06-07T20:51:15.418Z,5.90
2019-06-07T20:53:46.429Z,5.53
2019-06-07T20:56:17.426Z,6.25
2019-06-07T20:58:48.232Z,6.15
2019-06-07T21:01:19.090Z,5.80
2019-06-07T21:03:49.749Z,5.97
2019-06-07T21:06:20.827Z,5.80
2019-06-07T21:08:51.555Z,6.37
2019-06-07T21:11:22.641Z,6.53
2019-06-07T21:13:53.501Z,6.92
2019-06-07T21:16:24.486Z,7.67
2019-06-07T21:18:55.449Z,7.00
2019-06-07T21:21:26.570Z,6.83
2019-06-07T21:23:58.325Z,7.03
2019-06-07T21:26:29.488Z,7.65
2019-06-07T21:29:01.257Z,8.08
2019-06-07T21:31:32.661Z,7.47
2019-06-07T21:34:07.196Z,6.47
2019-06-07T21:36:37.532Z,7.42
2019-06-07T21:39:10.209Z,7.58
2019-06-07T21:41:41.327Z,9.40
2019-06-07T21:44:12.512Z,11.28
2019-06-07T21:46:44.355Z,10.45
2019-06-07T21:49:15.324Z,11.22
2019-06-07T21:51:46.511Z,11.00
2019-06-07T21:54:17.683Z,12.82
2019-06-07T21:59:18.541Z,13.08
2019-06-07T22:01:49.264Z,13.18
2019-06-07T22:04:20.000Z,12.95
2019-06-07T22:06:50.766Z,13.65
2019-06-07T22:09:22.156Z,14.83
2019-06-07T22:11:54.804Z,13.80
2019-06-07T22:14:25.932Z,15.35
2019-06-07T22:16:58.363Z,16.20
2019-06-07T22:19:29.666Z,14.55
2019-06-07T22:22:02.925Z,14.28
2019-06-07T22:24:33.764Z,14.87
2019-06-07T22:27:04.877Z,17.57
2019-06-07T22:29:35.543Z,17.67
2019-06-07T22:32:08.792Z,17.62
2019-06-07T22:34:49.977Z,18.50
2019-06-07T22:37:23.552Z,19.30
2019-06-07T22:39:54.222Z,18.27
2019-06-07T22:42:25.244Z,20.92
2019-06-07T22:44:56.097Z,19.27
2019-06-07T22:47:27.250Z,19.15
2019-06-07T22:49:58.292Z,18.55
2019-06-07T22:52:29.078Z,19.40
2019-06-07T22:55:00.307Z,18.20
2019-06-07T23:00:10.199Z,18.87
2019-06-07T23:02:39.639Z,19.48
2019-06-07T23:05:10.787Z,17.67
2019-06-07T23:07:41.683Z,16.27
2019-06-07T23:10:13.316Z,16.02
2019-06-07T23:12:44.654Z,15.95
2019-06-07T23:17:46.471Z,16.12
2019-06-07T23:20:18.250Z,14.70
2019-06-07T23:22:49.238Z,13.88
2019-06-07T23:25:23.948Z,13.88
2019-06-07T23:27:52.582Z,13.58
2019-06-07T23:30:23.620Z,12.50
2019-06-07T23:32:54.524Z,12.23
2019-06-07T23:35:25.684Z,11.80
2019-06-07T23:40:26.214Z,11.48
2019-06-07T23:42:57.354Z,10.80
2019-06-07T23:45:28.280Z,10.78
2019-06-07T23:47:59.237Z,9.73
2019-06-07T23:50:30.182Z,10.60
2019-06-07T23:53:01.208Z,10.43
2019-06-07T23:55:32.205Z,10.55
2019-06-07T23:58:03.107Z,11.88
